Time;durP1;ratioP1;P1;durP2;ratioP2;P2;SDS_P1;SDS_P2;PMS_P1;PMS_P2;Temp;Humidity;BMP_temperature;BMP_pressure;BME280_temperature;BME280_humidity;BME280_pressure;Samples;Min_cycle;Max_cycle;Signal;HPM_P1;HPM_P2
2023/09/06 00:00:58;;;;;;;17.02;8.30;;;;;;;;;;6180787;23;20040;-44
2023/09/06 00:03:28;;;;;;;15.87;7.60;;;;;;;;;;6187295;23;20438;-42
2023/09/06 00:05:58;;;;;;;14.88;7.45;;;;;;;;;;6178653;23;20016;-43
2023/09/06 00:08:26;;;;;;;15.05;8.02;;;;;;;;;;6182234;23;20440;-42
2023/09/06 00:10:54;;;;;;;17.42;8.10;;;;;;;;;;6183841;23;20012;-43
2023/09/06 00:13:21;;;;;;;14.77;8.57;;;;;;;;;;6189749;23;20020;-42
2023/09/06 00:15:50;;;;;;;18.60;10.17;;;;;;;;;;6175805;23;20024;-42
2023/09/06 00:18:18;;;;;;;20.60;10.23;;;;;;;;;;6174797;23;20039;-44
2023/09/06 00:20:47;;;;;;;16.95;9.38;;;;;;;;;;6185691;23;20027;-44
2023/09/06 00:23:17;;;;;;;19.05;9.55;;;;;;;;;;6182669;23;20017;-42
2023/09/06 00:25:45;;;;;;;17.58;9.18;;;;;;;;;;6182642;23;20440;-42
2023/09/06 00:28:13;;;;;;;14.90;8.93;;;;;;;;;;6184485;23;20020;-44
2023/09/06 00:30:44;;;;;;;17.17;9.43;;;;;;;;;;6182737;23;20059;-42
2023/09/06 00:33:13;;;;;;;18.95;9.70;;;;;;;;;;6180163;23;20032;-42
2023/09/06 00:35:41;;;;;;;16.25;9.48;;;;;;;;;;6185226;23;20013;-42
2023/09/06 00:38:11;;;;;;;14.90;9.40;;;;;;;;;;6177667;23;20033;-42
2023/09/06 00:40:40;;;;;;;15.60;9.93;;;;;;;;;;6189104;23;20017;-42
2023/09/06 00:43:08;;;;;;;16.10;9.85;;;;;;;;;;6187231;23;20201;-42
2023/09/06 00:45:38;;;;;;;17.08;9.80;;;;;;;;;;6176966;23;20012;-42
2023/09/06 00:48:06;;;;;;;14.40;9.30;;;;;;;;;;6189773;23;20017;-44
2023/09/06 00:50:34;;;;;;;17.23;9.05;;;;;;;;;;6182032;23;20024;-43
2023/09/06 00:53:04;;;;;;;15.73;9.30;;;;;;;;;;6186768;23;20028;-44
2023/09/06 00:55:33;;;;;;;16.80;9.02;;;;;;;;;;6171854;23;20029;-43
2023/09/06 00:58:02;;;;;;;14.70;8.93;;;;;;;;;;6185263;23;20063;-42
2023/09/06 01:00:35;;;;;;;15.63;9.00;;;;;;;;;;6188589;23;20067;-42
2023/09/06 01:03:04;;;;;;;15.77;8.95;;;;;;;;;;6184647;23;20031;-42
2023/09/06 01:05:36;;;;;;;16.57;9.67;;;;;;;;;;6179876;23;20291;-44
2023/09/06 01:08:05;;;;;;;16.92;9.35;;;;;;;;;;6187435;23;20017;-42
2023/09/06 01:10:34;;;;;;;16.65;9.13;;;;;;;;;;6177838;23;20444;-45
2023/09/06 01:13:02;;;;;;;15.88;9.32;;;;;;;;;;6181805;23;20024;-44
2023/09/06 01:15:31;;;;;;;15.50;9.23;;;;;;;;;;6176378;23;20463;-42
2023/09/06 01:18:00;;;;;;;14.03;9.67;;;;;;;;;;6183828;23;20067;-47
2023/09/06 01:20:33;;;;;;;13.73;8.95;;;;;;;;;;6155088;23;20013;-43
2023/09/06 01:23:07;;;;;;;14.85;9.93;;;;;;;;;;6188586;23;20045;-43
2023/09/06 01:25:36;;;;;;;18.23;9.07;;;;;;;;;;6188328;23;20017;-45
2023/09/06 01:28:04;;;;;;;14.93;9.45;;;;;;;;;;6183827;23;20368;-44
2023/09/06 01:30:32;;;;;;;18.93;8.73;;;;;;;;;;6180689;23;20020;-43
2023/09/06 01:33:00;;;;;;;19.58;10.02;;;;;;;;;;6179583;23;20031;-44
2023/09/06 01:35:28;;;;;;;17.05;9.48;;;;;;;;;;6187296;23;20020;-42
2023/09/06 01:37:56;;;;;;;14.85;8.85;;;;;;;;;;6171446;23;20017;-43
2023/09/06 01:40:26;;;;;;;16.42;9.73;;;;;;;;;;6188525;23;20023;-46
2023/09/06 01:42:56;;;;;;;14.30;8.93;;;;;;;;;;6179313;23;20525;-43
2023/09/06 01:45:23;;;;;;;15.60;8.40;;;;;;;;;;6190227;23;20016;-43
2023/09/06 01:47:51;;;;;;;14.50;8.65;;;;;;;;;;6175535;23;20797;-42
2023/09/06 01:50:19;;;;;;;15.32;9.00;;;;;;;;;;6192486;23;20027;-42
2023/09/06 01:52:47;;;;;;;15.20;9.25;;;;;;;;;;6174284;23;20023;-43
2023/09/06 01:55:15;;;;;;;15.43;8.97;;;;;;;;;;6183591;23;20024;-43
2023/09/06 01:57:43;;;;;;;14.90;8.90;;;;;;;;;;6190499;23;20021;-43
2023/09/06 02:00:22;;;;;;;16.48;8.82;;;;;;;;;;6194068;23;20020;-43
2023/09/06 02:02:50;;;;;;;15.80;9.02;;;;;;;;;;6177674;23;20132;-42
2023/09/06 02:05:19;;;;;;;14.93;8.10;;;;;;;;;;6195212;23;20050;-44
2023/09/06 02:07:48;;;;;;;17.57;8.83;;;;;;;;;;6188132;23;20017;-42
2023/09/06 02:10:18;;;;;;;14.32;8.20;;;;;;;;;;6185153;23;20020;-44
2023/09/06 02:12:45;;;;;;;15.30;9.13;;;;;;;;;;6189662;23;20059;-43
2023/09/06 02:15:14;;;;;;;16.58;9.80;;;;;;;;;;6167726;23;20112;-42
2023/09/06 02:17:43;;;;;;;15.80;8.70;;;;;;;;;;6192088;23;20135;-42
2023/09/06 02:20:17;;;;;;;15.43;8.73;;;;;;;;;;6186627;23;20016;-42
2023/09/06 02:22:46;;;;;;;15.45;8.80;;;;;;;;;;6195109;23;20456;-42
2023/09/06 02:25:15;;;;;;;16.55;9.82;;;;;;;;;;6192015;23;20464;-42
2023/09/06 02:27:43;;;;;;;14.13;9.68;;;;;;;;;;6187293;23;20016;-42
2023/09/06 02:30:11;;;;;;;18.05;8.88;;;;;;;;;;6194791;23;20062;-44
2023/09/06 02:32:40;;;;;;;15.47;9.73;;;;;;;;;;6186808;23;20016;-42
2023/09/06 02:35:08;;;;;;;15.43;9.32;;;;;;;;;;6197226;23;20095;-44
2023/09/06 02:37:36;;;;;;;13.43;8.75;;;;;;;;;;6185260;23;20013;-43
2023/09/06 02:40:11;;;;;;;16.52;8.65;;;;;;;;;;6173215;23;20017;-42
2023/09/06 02:42:39;;;;;;;16.70;9.00;;;;;;;;;;6190714;23;20203;-44
2023/09/06 02:45:09;;;;;;;15.80;9.30;;;;;;;;;;6189054;23;20020;-42
2023/09/06 02:47:47;;;;;;;18.42;10.05;;;;;;;;;;6187787;23;20066;-43
2023/09/06 02:50:17;;;;;;;19.13;10.43;;;;;;;;;;6170634;23;20017;-42
2023/09/06 02:52:45;;;;;;;17.95;10.57;;;;;;;;;;6198771;23;20081;-43
2023/09/06 02:55:14;;;;;;;20.13;11.38;;;;;;;;;;6184103;23;20024;-42
2023/09/06 02:57:42;;;;;;;18.33;11.50;;;;;;;;;;6192682;23;20098;-41
2023/09/06 03:00:19;;;;;;;18.33;11.40;;;;;;;;;;6186249;23;20071;-42
2023/09/06 03:02:50;;;;;;;18.33;10.50;;;;;;;;;;6194466;23;20023;-42
2023/09/06 03:05:18;;;;;;;17.67;10.93;;;;;;;;;;6184015;23;20315;-42
2023/09/06 03:07:50;;;;;;;20.33;11.20;;;;;;;;;;6199113;23;20016;-42
2023/09/06 03:10:20;;;;;;;18.63;11.20;;;;;;;;;;6195915;23;20013;-42
2023/09/06 03:12:48;;;;;;;20.27;11.88;;;;;;;;;;6188789;23;20025;-42
2023/09/06 03:15:16;;;;;;;19.98;11.93;;;;;;;;;;6190816;23;20020;-44
2023/09/06 03:17:46;;;;;;;21.67;12.07;;;;;;;;;;6161709;23;20020;-42
2023/09/06 03:20:31;;;;;;;20.58;12.48;;;;;;;;;;6195283;23;20017;-43
2023/09/06 03:23:01;;;;;;;22.40;12.67;;;;;;;;;;6193494;23;20020;-43
2023/09/06 03:25:29;;;;;;;20.85;12.52;;;;;;;;;;6187765;23;20519;-43
2023/09/06 03:28:00;;;;;;;19.52;12.73;;;;;;;;;;6187528;23;20016;-42
2023/09/06 03:30:31;;;;;;;19.25;13.05;;;;;;;;;;6191051;23;20020;-42
2023/09/06 03:33:00;;;;;;;19.17;12.57;;;;;;;;;;6194520;23;20031;-42
2023/09/06 03:35:29;;;;;;;19.93;12.80;;;;;;;;;;6185098;23;20432;-42
2023/09/06 03:37:58;;;;;;;22.45;14.10;;;;;;;;;;6196509;23;20452;-42
2023/09/06 03:40:34;;;;;;;22.30;11.95;;;;;;;;;;6180678;23;20063;-42
2023/09/06 03:43:09;;;;;;;19.35;12.13;;;;;;;;;;6192544;23;20016;-42
2023/09/06 03:45:38;;;;;;;18.55;11.68;;;;;;;;;;6183577;23;20021;-42
2023/09/06 03:48:07;;;;;;;17.00;11.10;;;;;;;;;;6189004;23;20437;-42
2023/09/06 03:50:36;;;;;;;17.98;11.93;;;;;;;;;;6193979;23;20024;-42
2023/09/06 03:53:04;;;;;;;18.05;11.68;;;;;;;;;;6188042;23;20472;-42
2023/09/06 03:55:34;;;;;;;19.55;12.40;;;;;;;;;;6195300;23;20020;-42
2023/09/06 03:58:07;;;;;;;15.70;10.63;;;;;;;;;;6184662;23;20475;-42
2023/09/06 04:00:39;;;;;;;21.60;12.37;;;;;;;;;;6189392;23;20019;-43
2023/09/06 04:03:08;;;;;;;19.17;10.32;;;;;;;;;;6191095;23;20012;-42
2023/09/06 04:05:41;;;;;;;21.40;11.65;;;;;;;;;;6190433;23;20080;-43
2023/09/06 04:08:09;;;;;;;19.33;11.10;;;;;;;;;;6186362;23;20028;-42
2023/09/06 04:10:38;;;;;;;17.48;10.40;;;;;;;;;;6196995;23;20046;-42
2023/09/06 04:13:11;;;;;;;16.33;10.30;;;;;;;;;;6196818;23;20047;-43
2023/09/06 04:15:39;;;;;;;19.15;9.95;;;;;;;;;;6178996;23;20075;-42
2023/09/06 04:18:10;;;;;;;16.23;10.43;;;;;;;;;;6189066;23;20021;-42
2023/09/06 04:20:39;;;;;;;17.83;10.13;;;;;;;;;;6194000;23;20036;-42
2023/09/06 04:23:11;;;;;;;16.83;10.63;;;;;;;;;;6185000;23;20022;-42
2023/09/06 04:25:41;;;;;;;16.67;10.27;;;;;;;;;;6189416;23;20016;-42
2023/09/06 04:28:10;;;;;;;18.67;10.45;;;;;;;;;;6189479;23;20108;-43
2023/09/06 04:30:40;;;;;;;17.13;10.18;;;;;;;;;;6174297;23;20529;-42
2023/09/06 04:33:10;;;;;;;15.93;10.05;;;;;;;;;;6195709;23;20016;-42
2023/09/06 04:35:38;;;;;;;17.35;10.80;;;;;;;;;;6190444;23;20021;-43
2023/09/06 04:38:09;;;;;;;16.77;10.33;;;;;;;;;;6186038;23;20016;-42
2023/09/06 04:40:39;;;;;;;17.38;10.52;;;;;;;;;;6194522;23;20020;-42
2023/09/06 04:43:08;;;;;;;16.70;10.32;;;;;;;;;;6179963;23;20024;-42
2023/09/06 04:45:37;;;;;;;15.93;9.93;;;;;;;;;;6191938;23;20012;-43
2023/09/06 04:48:05;;;;;;;19.02;10.95;;;;;;;;;;6178873;23;20613;-42
2023/09/06 04:50:33;;;;;;;19.07;11.17;;;;;;;;;;6185191;23;20016;-42
2023/09/06 04:53:01;;;;;;;16.67;10.02;;;;;;;;;;6181907;23;20016;-46
2023/09/06 04:55:33;;;;;;;15.55;9.30;;;;;;;;;;6187908;23;20021;-45
2023/09/06 04:58:04;;;;;;;16.92;9.77;;;;;;;;;;6182212;23;20452;-44
2023/09/06 05:00:35;;;;;;;19.52;9.75;;;;;;;;;;6178539;23;20017;-43
2023/09/06 05:03:08;;;;;;;18.97;9.90;;;;;;;;;;6174744;23;20070;-45
2023/09/06 05:05:36;;;;;;;20.75;11.02;;;;;;;;;;6180141;23;20019;-42
2023/09/06 05:08:05;;;;;;;18.88;10.77;;;;;;;;;;6180456;23;20066;-44
2023/09/06 05:10:35;;;;;;;16.55;9.57;;;;;;;;;;6178722;23;20016;-42
2023/09/06 05:13:07;;;;;;;20.35;10.55;;;;;;;;;;6183364;23;20024;-42
2023/09/06 05:15:36;;;;;;;16.37;10.07;;;;;;;;;;6162937;23;20181;-44
2023/09/06 05:18:04;;;;;;;17.63;11.23;;;;;;;;;;6190655;23;20016;-44
2023/09/06 05:20:33;;;;;;;18.83;11.57;;;;;;;;;;6173547;23;20047;-42
2023/09/06 05:23:03;;;;;;;21.25;11.70;;;;;;;;;;6188280;23;20017;-42
2023/09/06 05:25:31;;;;;;;20.42;12.63;;;;;;;;;;6179654;23;20016;-42
2023/09/06 05:28:00;;;;;;;18.70;11.87;;;;;;;;;;6187141;23;20016;-43
2023/09/06 05:30:33;;;;;;;21.65;12.65;;;;;;;;;;6185475;23;20389;-42
2023/09/06 05:33:02;;;;;;;19.00;12.55;;;;;;;;;;6188478;23;20317;-42
2023/09/06 05:35:30;;;;;;;20.02;12.93;;;;;;;;;;6180434;23;20021;-43
2023/09/06 05:37:58;;;;;;;22.88;13.68;;;;;;;;;;6191542;23;20027;-42
2023/09/06 05:40:26;;;;;;;25.47;13.73;;;;;;;;;;6175637;23;20105;-42
2023/09/06 05:42:54;;;;;;;20.38;12.57;;;;;;;;;;6184585;23;20013;-42
2023/09/06 05:45:22;;;;;;;20.30;12.27;;;;;;;;;;6177461;23;20309;-43
2023/09/06 05:47:51;;;;;;;19.25;11.40;;;;;;;;;;6149217;23;20021;-42
2023/09/06 05:50:21;;;;;;;20.45;12.00;;;;;;;;;;6178233;23;20012;-44
2023/09/06 05:52:49;;;;;;;23.30;13.63;;;;;;;;;;6183852;23;20463;-44
2023/09/06 05:55:17;;;;;;;19.20;12.35;;;;;;;;;;6178693;23;20030;-44
2023/09/06 05:57:45;;;;;;;20.73;13.48;;;;;;;;;;6181558;23;20012;-43
2023/09/06 06:00:17;;;;;;;18.80;12.30;;;;;;;;;;6183360;23;20457;-43
2023/09/06 06:02:45;;;;;;;20.95;13.15;;;;;;;;;;6186697;23;20645;-43
2023/09/06 06:05:14;;;;;;;21.90;12.50;;;;;;;;;;6179668;23;20024;-43
2023/09/06 06:07:41;;;;;;;21.73;12.65;;;;;;;;;;6185297;23;20492;-42
2023/09/06 06:10:10;;;;;;;20.38;12.63;;;;;;;;;;6187464;23;20343;-41
2023/09/06 06:12:38;;;;;;;21.70;12.70;;;;;;;;;;6178628;23;20013;-42
2023/09/06 06:15:08;;;;;;;25.63;13.50;;;;;;;;;;6193237;23;20012;-42
2023/09/06 06:17:36;;;;;;;25.97;15.63;;;;;;;;;;6180980;23;20516;-42
2023/09/06 06:20:06;;;;;;;28.15;15.65;;;;;;;;;;6178546;23;20031;-43
2023/09/06 06:22:38;;;;;;;22.15;14.35;;;;;;;;;;6176942;23;20013;-42
2023/09/06 06:25:06;;;;;;;26.90;15.02;;;;;;;;;;6186838;23;20575;-41
2023/09/06 06:27:34;;;;;;;18.00;12.07;;;;;;;;;;6186946;23;20088;-41
2023/09/06 06:30:05;;;;;;;23.50;12.53;;;;;;;;;;6188074;23;20639;-42
2023/09/06 06:32:33;;;;;;;22.80;13.02;;;;;;;;;;6178553;23;20091;-43
2023/09/06 06:35:05;;;;;;;20.30;12.35;;;;;;;;;;6185957;23;20021;-42
2023/09/06 06:37:32;;;;;;;23.60;12.55;;;;;;;;;;6173709;23;20027;-41
2023/09/06 06:40:02;;;;;;;23.17;13.50;;;;;;;;;;6187747;23;20368;-44
2023/09/06 06:42:32;;;;;;;23.53;14.03;;;;;;;;;;6176357;23;20012;-42
2023/09/06 06:45:00;;;;;;;21.08;13.60;;;;;;;;;;6146541;23;20052;-42
2023/09/06 06:47:29;;;;;;;22.88;14.00;;;;;;;;;;6189547;23;20021;-42
2023/09/06 06:50:02;;;;;;;26.80;14.20;;;;;;;;;;6181667;23;20021;-42
2023/09/06 06:52:33;;;;;;;27.48;14.63;;;;;;;;;;6190042;23;20413;-42
2023/09/06 06:55:03;;;;;;;26.97;14.43;;;;;;;;;;6174106;23;20075;-43
2023/09/06 06:57:33;;;;;;;25.20;15.60;;;;;;;;;;6181281;23;20456;-42
2023/09/06 07:00:02;;;;;;;28.48;15.68;;;;;;;;;;6185648;23;20071;-43
2023/09/06 07:02:29;;;;;;;23.33;15.65;;;;;;;;;;6186785;23;20020;-42
2023/09/06 07:04:57;;;;;;;27.38;16.30;;;;;;;;;;6187242;23;20136;-42
2023/09/06 07:07:25;;;;;;;28.97;16.40;;;;;;;;;;6174843;23;20012;-41
2023/09/06 07:09:53;;;;;;;28.60;16.88;;;;;;;;;;6181602;23;20017;-43
2023/09/06 07:12:22;;;;;;;25.98;17.10;;;;;;;;;;6177210;23;20020;-42
2023/09/06 07:14:51;;;;;;;27.60;16.23;;;;;;;;;;6184625;23;20023;-42
2023/09/06 07:17:18;;;;;;;30.33;16.88;;;;;;;;;;6179472;23;20059;-44
2023/09/06 07:19:46;;;;;;;23.90;15.67;;;;;;;;;;6190793;23;20040;-41
2023/09/06 07:22:14;;;;;;;27.67;16.60;;;;;;;;;;6178836;23;20543;-42
2023/09/06 07:24:42;;;;;;;25.70;16.58;;;;;;;;;;6176841;23;20027;-43
2023/09/06 07:27:10;;;;;;;25.95;16.40;;;;;;;;;;6187570;23;20013;-42
2023/09/06 07:29:40;;;;;;;29.02;17.13;;;;;;;;;;6188680;23;20024;-44
2023/09/06 07:32:07;;;;;;;25.53;15.87;;;;;;;;;;6172354;23;20016;-44
2023/09/06 07:34:35;;;;;;;28.15;16.60;;;;;;;;;;6190122;23;20018;-43
2023/09/06 07:37:03;;;;;;;26.75;15.15;;;;;;;;;;6180368;23;20020;-42
2023/09/06 07:39:31;;;;;;;25.85;16.05;;;;;;;;;;6192435;23;20443;-43
2023/09/06 07:41:59;;;;;;;24.52;14.98;;;;;;;;;;6121010;23;20017;-43
2023/09/06 07:44:32;;;;;;;18.83;11.10;;;;;;;;;;6180415;23;20417;-43
2023/09/06 07:47:03;;;;;;;16.15;8.35;;;;;;;;;;6185408;23;20016;-42
2023/09/06 07:49:32;;;;;;;26.65;14.27;;;;;;;;;;6186050;23;20047;-43
2023/09/06 07:52:04;;;;;;;18.38;11.45;;;;;;;;;;6181173;23;20079;-49
2023/09/06 07:54:33;;;;;;;27.05;15.60;;;;;;;;;;6186788;23;20016;-45
2023/09/06 07:57:01;;;;;;;30.03;16.00;;;;;;;;;;6172237;23;20476;-44
2023/09/06 07:59:28;;;;;;;30.10;15.82;;;;;;;;;;6178531;23;20027;-43
2023/09/06 08:01:56;;;;;;;26.92;15.88;;;;;;;;;;6191535;23;20099;-43
2023/09/06 08:04:25;;;;;;;26.27;14.68;;;;;;;;;;6171564;23;21012;-43
2023/09/06 08:06:55;;;;;;;23.05;14.07;;;;;;;;;;6179139;23;20491;-42
2023/09/06 08:09:23;;;;;;;26.57;15.13;;;;;;;;;;6177043;23;20032;-46
2023/09/06 08:11:51;;;;;;;24.52;15.68;;;;;;;;;;6162301;23;20017;-46
2023/09/06 08:14:19;;;;;;;26.40;15.23;;;;;;;;;;6160272;23;20095;-44
2023/09/06 08:16:47;;;;;;;23.35;13.90;;;;;;;;;;6169952;23;20164;-49
2023/09/06 08:19:14;;;;;;;23.83;14.10;;;;;;;;;;6164215;23;20116;-47
2023/09/06 08:21:43;;;;;;;23.13;13.47;;;;;;;;;;6164885;23;20017;-44
2023/09/06 08:24:11;;;;;;;24.65;15.00;;;;;;;;;;6168427;23;20020;-44
2023/09/06 08:26:40;;;;;;;23.33;13.15;;;;;;;;;;6169505;23;20020;-43
2023/09/06 08:29:08;;;;;;;21.20;14.13;;;;;;;;;;6168622;23;20672;-45
2023/09/06 08:31:36;;;;;;;20.92;13.18;;;;;;;;;;6165999;23;20028;-44
2023/09/06 08:34:04;;;;;;;23.50;13.73;;;;;;;;;;6164922;23;20392;-44
2023/09/06 08:36:31;;;;;;;24.63;13.85;;;;;;;;;;6167289;23;20095;-45
2023/09/06 08:39:01;;;;;;;23.20;12.90;;;;;;;;;;6157492;23;20013;-45
2023/09/06 08:41:29;;;;;;;22.95;14.13;;;;;;;;;;6158048;23;20047;-44
2023/09/06 08:43:57;;;;;;;19.05;12.45;;;;;;;;;;6166645;23;20024;-46
2023/09/06 08:46:28;;;;;;;20.30;11.90;;;;;;;;;;6153119;23;20097;-45
2023/09/06 08:48:58;;;;;;;21.63;12.45;;;;;;;;;;6169154;23;20435;-43
2023/09/06 08:51:26;;;;;;;19.95;12.50;;;;;;;;;;6160700;23;20021;-44
2023/09/06 08:53:54;;;;;;;20.30;12.80;;;;;;;;;;6168829;23;20070;-43
2023/09/06 08:56:23;;;;;;;20.58;11.60;;;;;;;;;;6157565;23;20613;-43
2023/09/06 08:58:51;;;;;;;18.93;11.00;;;;;;;;;;6170472;23;20322;-43
2023/09/06 09:01:19;;;;;;;23.02;12.55;;;;;;;;;;6145765;23;20448;-45
2023/09/06 09:03:47;;;;;;;22.58;13.27;;;;;;;;;;6172006;23;20042;-45
2023/09/06 09:06:15;;;;;;;16.80;10.57;;;;;;;;;;6146000;23;20044;-44
2023/09/06 09:08:43;;;;;;;19.92;11.98;;;;;;;;;;6172013;23;20012;-43
2023/09/06 09:11:11;;;;;;;16.03;9.47;;;;;;;;;;6166888;23;20096;-44
2023/09/06 09:13:40;;;;;;;15.40;9.65;;;;;;;;;;6157287;23;20179;-45
2023/09/06 09:16:10;;;;;;;20.35;11.27;;;;;;;;;;6164793;23;20027;-45
2023/09/06 09:18:38;;;;;;;18.25;10.60;;;;;;;;;;6164704;23;20017;-44
2023/09/06 09:21:09;;;;;;;18.45;11.05;;;;;;;;;;6167147;23;20017;-43
2023/09/06 09:23:43;;;;;;;14.93;9.20;;;;;;;;;;6161579;23;20104;-45
2023/09/06 09:26:10;;;;;;;18.65;10.75;;;;;;;;;;6177053;23;20338;-46
2023/09/06 09:28:41;;;;;;;18.60;11.15;;;;;;;;;;6157731;23;20017;-45
2023/09/06 09:31:13;;;;;;;15.45;9.85;;;;;;;;;;6163246;23;20020;-45
2023/09/06 09:33:43;;;;;;;17.67;10.55;;;;;;;;;;6174429;23;20017;-44
2023/09/06 09:36:16;;;;;;;7.83;4.03;;;;;;;;;;6148214;23;20698;-45
2023/09/06 09:38:48;;;;;;;12.50;7.03;;;;;;;;;;6169074;23;20448;-44
2023/09/06 09:41:16;;;;;;;25.25;12.65;;;;;;;;;;6157974;23;20239;-45
2023/09/06 09:43:45;;;;;;;23.90;11.88;;;;;;;;;;6139064;23;20024;-46
2023/09/06 09:46:25;;;;;;;22.27;10.70;;;;;;;;;;6170274;23;20091;-45
2023/09/06 09:48:54;;;;;;;18.13;10.30;;;;;;;;;;6156730;23;20020;-45
2023/09/06 09:51:22;;;;;;;18.05;10.85;;;;;;;;;;6156135;23;20020;-45
2023/09/06 09:53:50;;;;;;;21.33;10.75;;;;;;;;;;6173265;23;20017;-45
2023/09/06 09:56:20;;;;;;;10.18;4.82;;;;;;;;;;6157970;23;20017;-44
2023/09/06 09:58:49;;;;;;;7.82;3.53;;;;;;;;;;6165315;23;20360;-44
2023/09/06 10:01:18;;;;;;;22.10;11.57;;;;;;;;;;6156257;23;20363;-48
2023/09/06 10:03:49;;;;;;;19.55;11.18;;;;;;;;;;6166487;23;20020;-46
2023/09/06 10:06:19;;;;;;;17.77;10.18;;;;;;;;;;6170993;23;20020;-45
2023/09/06 10:08:51;;;;;;;14.77;7.30;;;;;;;;;;6150954;23;20071;-45
2023/09/06 10:11:20;;;;;;;13.88;8.85;;;;;;;;;;6171624;23;20443;-47
2023/09/06 10:13:49;;;;;;;18.90;11.20;;;;;;;;;;6159347;23;20017;-43
2023/09/06 10:16:18;;;;;;;20.52;10.50;;;;;;;;;;6167428;23;20032;-45
2023/09/06 10:18:47;;;;;;;15.88;8.00;;;;;;;;;;6160235;23;20379;-45
2023/09/06 10:21:15;;;;;;;18.67;9.13;;;;;;;;;;6168150;23;20044;-44
2023/09/06 10:23:43;;;;;;;17.80;9.52;;;;;;;;;;6163617;23;20091;-45
2023/09/06 10:26:11;;;;;;;17.77;9.97;;;;;;;;;;6170957;23;20020;-43
2023/09/06 10:28:39;;;;;;;14.40;7.40;;;;;;;;;;6165144;23;20031;-45
2023/09/06 10:31:09;;;;;;;13.60;7.80;;;;;;;;;;6155851;23;20499;-44
2023/09/06 10:33:57;;;;;;;16.10;9.20;;;;;;;;;;6171543;23;20017;-44
2023/09/06 10:36:29;;;;;;;13.52;8.38;;;;;;;;;;6175030;23;20070;-46
2023/09/06 10:39:18;;;;;;;17.47;9.67;;;;;;;;;;6162834;23;20407;-48
2023/09/06 10:42:04;;;;;;;14.98;7.93;;;;;;;;;;6171104;23;20478;-45
2023/09/06 10:44:55;;;;;;;13.02;7.68;;;;;;;;;;6165145;23;20020;-44
2023/09/06 10:47:24;;;;;;;9.25;5.18;;;;;;;;;;6166922;23;20024;-43
2023/09/06 10:50:11;;;;;;;12.55;7.85;;;;;;;;;;6169244;23;20099;-46
2023/09/06 10:52:41;;;;;;;14.40;8.03;;;;;;;;;;6165874;23;20020;-44
2023/09/06 10:55:14;;;;;;;7.40;3.95;;;;;;;;;;6154874;23;20265;-45
2023/09/06 10:57:49;;;;;;;12.32;7.72;;;;;;;;;;6175226;23;20039;-45
2023/09/06 11:00:19;;;;;;;9.10;5.45;;;;;;;;;;6159988;23;20017;-46
2023/09/06 11:03:05;;;;;;;7.38;4.07;;;;;;;;;;6166679;23;20016;-50
2023/09/06 11:05:35;;;;;;;16.57;9.23;;;;;;;;;;6171142;23;20199;-44
2023/09/06 11:08:04;;;;;;;15.02;7.97;;;;;;;;;;6167123;23;20294;-45
2023/09/06 11:10:36;;;;;;;11.80;6.93;;;;;;;;;;6161577;23;20016;-42
2023/09/06 11:13:09;;;;;;;14.75;7.90;;;;;;;;;;6171837;23;20028;-46
2023/09/06 11:15:37;;;;;;;14.15;7.75;;;;;;;;;;6162937;23;20423;-44
2023/09/06 11:18:05;;;;;;;12.43;7.70;;;;;;;;;;6169549;23;20048;-43
2023/09/06 11:20:34;;;;;;;16.75;8.95;;;;;;;;;;6166922;23;20024;-43
2023/09/06 11:23:03;;;;;;;13.27;8.05;;;;;;;;;;6171379;23;20016;-45
2023/09/06 11:25:32;;;;;;;14.45;9.10;;;;;;;;;;6160048;23;20047;-45
2023/09/06 11:28:02;;;;;;;12.35;7.85;;;;;;;;;;6155979;23;20024;-43
2023/09/06 11:30:36;;;;;;;13.27;6.90;;;;;;;;;;6172418;23;20012;-44
2023/09/06 11:33:07;;;;;;;15.45;8.40;;;;;;;;;;6171921;23;20020;-44
2023/09/06 11:35:38;;;;;;;14.55;8.25;;;;;;;;;;6165900;23;20595;-44
2023/09/06 11:38:06;;;;;;;16.33;8.50;;;;;;;;;;6171908;23;20226;-46
2023/09/06 11:40:35;;;;;;;14.07;7.53;;;;;;;;;;6164328;23;20478;-43
2023/09/06 11:43:05;;;;;;;12.30;7.43;;;;;;;;;;6160498;23;20040;-45
2023/09/06 11:45:33;;;;;;;12.75;7.93;;;;;;;;;;6163388;23;20020;-44
2023/09/06 11:48:05;;;;;;;8.07;4.38;;;;;;;;;;6170870;23;20028;-44
2023/09/06 11:50:34;;;;;;;11.63;6.40;;;;;;;;;;6136317;23;20095;-45
2023/09/06 11:53:04;;;;;;;12.80;7.03;;;;;;;;;;6162357;23;20027;-43
2023/09/06 11:55:37;;;;;;;9.13;5.30;;;;;;;;;;6169315;23;20020;-43
2023/09/06 11:58:15;;;;;;;11.88;5.72;;;;;;;;;;6170060;23;20016;-43
2023/09/06 12:00:47;;;;;;;13.90;6.80;;;;;;;;;;6162738;23;20479;-43
2023/09/06 12:03:16;;;;;;;11.93;6.85;;;;;;;;;;6168732;23;20040;-43
2023/09/06 12:05:44;;;;;;;14.30;7.38;;;;;;;;;;6167027;23;20023;-45
2023/09/06 12:08:19;;;;;;;13.27;4.90;;;;;;;;;;6175292;23;20079;-43
2023/09/06 12:10:50;;;;;;;9.20;5.25;;;;;;;;;;6167379;23;20437;-44
2023/09/06 12:13:25;;;;;;;7.97;4.05;;;;;;;;;;6174042;23;20043;-43
2023/09/06 12:15:53;;;;;;;13.13;6.80;;;;;;;;;;6165891;23;20027;-44
2023/09/06 12:18:21;;;;;;;9.68;5.15;;;;;;;;;;6170226;23;20027;-44
2023/09/06 12:20:49;;;;;;;9.87;6.10;;;;;;;;;;6159946;23;20023;-46
2023/09/06 12:23:20;;;;;;;11.70;6.63;;;;;;;;;;6162121;23;20044;-48
2023/09/06 12:25:48;;;;;;;9.55;6.13;;;;;;;;;;6110207;23;20044;-45
2023/09/06 12:28:15;;;;;;;11.52;5.65;;;;;;;;;;6171542;23;20686;-43
2023/09/06 12:30:45;;;;;;;9.90;4.15;;;;;;;;;;6157811;23;20020;-43
2023/09/06 12:33:13;;;;;;;10.17;4.43;;;;;;;;;;6159763;23;20094;-44
2023/09/06 12:35:44;;;;;;;11.32;5.68;;;;;;;;;;6172474;23;20621;-44
2023/09/06 12:38:13;;;;;;;11.45;6.47;;;;;;;;;;6165953;23;20515;-44
2023/09/06 12:40:41;;;;;;;6.55;3.20;;;;;;;;;;6150584;23;20024;-45
2023/09/06 12:43:09;;;;;;;11.60;4.72;;;;;;;;;;6160921;23;20017;-44
2023/09/06 12:45:37;;;;;;;6.57;3.17;;;;;;;;;;6146787;23;20112;-44
2023/09/06 12:48:06;;;;;;;12.88;5.68;;;;;;;;;;6171105;23;20020;-46
2023/09/06 12:50:34;;;;;;;12.48;6.38;;;;;;;;;;6160266;23;20077;-46
2023/09/06 12:53:13;;;;;;;10.60;6.00;;;;;;;;;;6159108;23;20444;-45
2023/09/06 12:55:41;;;;;;;13.10;6.25;;;;;;;;;;6169813;23;20123;-44
2023/09/06 12:58:09;;;;;;;8.00;3.23;;;;;;;;;;6147181;23;20482;-44
2023/09/06 13:00:36;;;;;;;7.20;4.50;;;;;;;;;;6143663;23;20218;-47
2023/09/06 13:03:05;;;;;;;7.60;3.90;;;;;;;;;;6153223;23;20024;-45
2023/09/06 13:05:34;;;;;;;11.60;6.38;;;;;;;;;;6157253;23;20017;-45
2023/09/06 13:08:04;;;;;;;5.78;2.75;;;;;;;;;;6117892;23;20537;-46
2023/09/06 13:10:31;;;;;;;8.80;4.50;;;;;;;;;;6136621;23;20024;-46
2023/09/06 13:13:00;;;;;;;6.47;3.30;;;;;;;;;;6132090;23;20043;-45
2023/09/06 13:15:27;;;;;;;5.68;2.65;;;;;;;;;;6108131;23;20032;-46
2023/09/06 13:17:55;;;;;;;5.00;2.10;;;;;;;;;;6154981;23;20017;-44
2023/09/06 13:20:25;;;;;;;5.80;2.55;;;;;;;;;;6144919;23;20143;-44
2023/09/06 13:22:52;;;;;;;10.40;4.50;;;;;;;;;;6157460;23;20419;-45
2023/09/06 13:25:20;;;;;;;6.18;3.40;;;;;;;;;;6162877;23;20223;-49
2023/09/06 13:27:48;;;;;;;5.85;2.58;;;;;;;;;;6124270;23;20368;-45
2023/09/06 13:30:16;;;;;;;12.13;6.65;;;;;;;;;;6164901;23;20024;-46
2023/09/06 13:32:44;;;;;;;9.90;3.60;;;;;;;;;;6121134;23;20020;-46
2023/09/06 13:35:13;;;;;;;4.97;2.03;;;;;;;;;;6108652;23;20067;-46
2023/09/06 13:37:56;;;;;;;5.75;2.80;;;;;;;;;;6157886;23;20615;-44
2023/09/06 13:40:26;;;;;;;13.52;4.47;;;;;;;;;;6154920;23;20025;-44
2023/09/06 13:42:53;;;;;;;6.18;2.80;;;;;;;;;;6148261;23;20412;-45
2023/09/06 13:45:21;;;;;;;5.97;3.25;;;;;;;;;;6167457;23;20021;-46
2023/09/06 13:47:49;;;;;;;13.30;7.70;;;;;;;;;;6139288;23;20384;-43
2023/09/06 13:50:17;;;;;;;8.32;3.78;;;;;;;;;;6153603;23;20020;-44
2023/09/06 13:52:45;;;;;;;7.60;3.13;;;;;;;;;;6144541;23;20024;-42
2023/09/06 13:55:19;;;;;;;5.38;2.50;;;;;;;;;;6166249;23;20580;-45
2023/09/06 13:57:48;;;;;;;12.43;6.20;;;;;;;;;;6142854;23;20044;-42
2023/09/06 14:00:16;;;;;;;11.20;7.13;;;;;;;;;;6133664;23;20621;-43
2023/09/06 14:02:44;;;;;;;7.30;4.32;;;;;;;;;;6129553;23;20020;-45
2023/09/06 14:05:12;;;;;;;5.53;2.72;;;;;;;;;;6128337;23;20043;-43
2023/09/06 14:07:40;;;;;;;6.43;3.80;;;;;;;;;;6152350;23;20032;-43
2023/09/06 14:10:08;;;;;;;6.68;4.13;;;;;;;;;;6167554;23;20028;-43
2023/09/06 14:12:36;;;;;;;18.60;7.53;;;;;;;;;;6141474;23;20028;-43
2023/09/06 14:15:06;;;;;;;9.70;5.00;;;;;;;;;;6131897;23;20020;-44
2023/09/06 14:17:34;;;;;;;15.50;7.03;;;;;;;;;;6155700;23;20021;-45
2023/09/06 14:20:03;;;;;;;13.40;7.22;;;;;;;;;;6148276;23;20040;-44
2023/09/06 14:22:34;;;;;;;9.95;3.88;;;;;;;;;;6156375;23;20016;-44
2023/09/06 14:25:05;;;;;;;5.00;2.40;;;;;;;;;;6158183;23;20031;-44
2023/09/06 14:27:33;;;;;;;9.40;4.43;;;;;;;;;;6155731;23;20028;-43
2023/09/06 14:30:00;;;;;;;14.80;7.00;;;;;;;;;;6159731;23;20051;-44
2023/09/06 14:32:29;;;;;;;8.48;2.88;;;;;;;;;;6153571;23;20017;-42
2023/09/06 14:34:58;;;;;;;13.60;4.68;;;;;;;;;;6160159;23;20028;-43
2023/09/06 14:37:26;;;;;;;16.07;6.17;;;;;;;;;;6144222;23;20608;-43
2023/09/06 14:39:54;;;;;;;4.95;2.10;;;;;;;;;;6157803;23;20023;-43